Time;durP1;ratioP1;P1;durP2;ratioP2;P2;SDS_P1;SDS_P2;PMS_P1;PMS_P2;Temp;Humidity;BMP_temperature;BMP_pressure;BME280_temperature;BME280_humidity;BME280_pressure;Samples;Min_cycle;Max_cycle;Signal;HPM_P1;HPM_P2
2021/07/21 00:00:24;;;;;;;23.60;14.55;;;;;;;19.14;100.00;98680.47;1695689;84;21502;-84
2021/07/21 00:02:50;;;;;;;23.25;15.20;;;;;;;19.13;100.00;98680.27;1695738;83;21152;-84
2021/07/21 00:05:18;;;;;;;20.80;13.95;;;;;;;19.11;100.00;98679.86;1695724;84;21558;-82
2021/07/21 00:07:45;;;;;;;23.83;14.28;;;;;;;19.09;100.00;98677.27;1695962;83;21416;-82
2021/07/21 00:10:17;;;;;;;22.30;13.70;;;;;;;19.06;100.00;98677.46;1695721;84;20904;-82
2021/07/21 00:15:32;;;;;;;23.73;13.10;;;;;;;19.00;100.00;98676.88;1695678;83;21065;-83
2021/07/21 00:18:04;;;;;;;21.42;13.60;;;;;;;18.96;100.00;98674.67;1695749;84;20999;-82
2021/07/21 00:20:31;;;;;;;22.35;13.18;;;;;;;18.93;100.00;98677.65;1695393;83;21003;-82
2021/07/21 00:22:58;;;;;;;24.95;13.30;;;;;;;18.92;100.00;98680.22;1695447;84;20971;-82
2021/07/21 00:25:25;;;;;;;25.20;14.15;;;;;;;18.90;100.00;98676.24;1696803;84;20947;-81
2021/07/21 00:27:51;;;;;;;22.30;13.62;;;;;;;18.86;100.00;98674.84;1695873;84;21091;-81
2021/07/21 00:30:18;;;;;;;21.02;13.62;;;;;;;18.83;100.00;98674.23;1695715;84;21121;-81
2021/07/21 00:32:45;;;;;;;18.73;13.45;;;;;;;18.82;100.00;98671.84;1677573;84;21079;-81
2021/07/21 00:35:15;;;;;;;23.80;13.62;;;;;;;18.81;100.00;98673.83;1675858;84;21110;-82
2021/07/21 00:37:43;;;;;;;18.65;12.80;;;;;;;18.79;100.00;98666.47;1675911;85;21004;-82
2021/07/21 00:40:11;;;;;;;21.07;12.35;;;;;;;18.77;100.00;98666.06;1675514;85;22112;-82
2021/07/21 00:42:40;;;;;;;21.47;12.63;;;;;;;18.75;100.00;98655.93;1677088;84;20945;-81
2021/07/21 00:45:07;;;;;;;18.07;11.80;;;;;;;18.72;100.00;98649.17;1680785;84;21157;-82
2021/07/21 00:47:35;;;;;;;21.37;13.58;;;;;;;18.71;100.00;98642.02;1677063;85;21004;-81
2021/07/21 00:50:01;;;;;;;16.62;11.93;;;;;;;18.70;100.00;98635.45;1676835;85;21503;-80
2021/07/21 00:52:28;;;;;;;15.15;11.83;;;;;;;18.69;100.00;98640.81;1677541;85;21508;-83
2021/07/21 00:54:54;;;;;;;19.12;12.65;;;;;;;18.67;100.00;98640.41;1679251;84;21032;-83
2021/07/21 00:57:21;;;;;;;19.95;12.50;;;;;;;18.65;100.00;98635.84;1675900;84;21063;-82
2021/07/21 00:59:50;;;;;;;20.90;12.30;;;;;;;18.62;100.00;98634.63;1655466;85;21029;-83
2021/07/21 01:02:17;;;;;;;19.62;14.05;;;;;;;18.63;100.00;98632.65;1695771;84;21071;-83
2021/07/21 01:04:44;;;;;;;22.80;14.33;;;;;;;18.61;100.00;98637.21;1694828;83;21120;-82
2021/07/21 01:07:11;;;;;;;26.95;13.62;;;;;;;18.64;100.00;98635.03;1695804;83;21022;-83
2021/07/21 01:09:44;;;;;;;25.43;13.85;;;;;;;18.68;100.00;98637.83;1694740;83;21077;-83
2021/07/21 01:12:33;;;;;;;19.05;13.18;;;;;;;18.72;100.00;98635.27;1681282;84;21514;-84
2021/07/21 01:15:14;;;;;;;17.40;11.63;;;;;;;18.73;100.00;98636.06;1676746;84;21067;-84
2021/07/21 01:18:04;;;;;;;22.32;12.13;;;;;;;18.70;100.00;98636.25;1662841;84;21144;-84
2021/07/21 01:21:27;;;;;;;18.42;12.78;;;;;;;18.69;100.00;98640.81;1678686;84;21060;-84
2021/07/21 01:24:36;;;;;;;27.80;14.80;;;;;;;18.65;100.00;98638.02;1678967;84;20928;-83
2021/07/21 01:27:29;;;;;;;29.15;15.60;;;;;;;18.64;100.00;98628.69;1679827;84;21039;-81
2021/07/21 01:30:01;;;;;;;22.20;13.98;;;;;;;18.63;100.00;98622.33;1675155;85;21023;-81
2021/07/21 01:32:30;;;;;;;17.55;13.68;;;;;;;18.64;100.00;98627.30;1675985;84;21222;-81
2021/07/21 01:35:08;;;;;;;22.87;13.70;;;;;;;18.66;100.00;98627.70;1673314;84;21610;-82
2021/07/21 01:37:38;;;;;;;26.45;12.93;;;;;;;18.65;100.00;98625.52;1679821;84;20959;-82
2021/07/21 01:40:08;;;;;;;22.35;13.70;;;;;;;18.66;100.00;98615.98;1676938;85;20957;-83
2021/07/21 01:42:35;;;;;;;19.73;13.22;;;;;;;18.63;100.00;98615.38;1671740;85;21076;-83
2021/07/21 01:45:01;;;;;;;23.12;12.58;;;;;;;18.63;100.00;98614.58;1672570;85;21098;-83
2021/07/21 01:47:33;;;;;;;20.65;13.28;;;;;;;18.63;100.00;98618.75;1672681;85;21038;-83
2021/07/21 01:49:58;;;;;;;21.48;13.78;;;;;;;18.62;100.00;98610.21;1672412;85;20954;-83
2021/07/21 01:52:27;;;;;;;26.07;14.85;;;;;;;18.59;100.00;98615.92;1668940;85;21050;-82
2021/07/21 01:54:56;;;;;;;24.98;15.58;;;;;;;18.58;100.00;98617.71;1669529;85;21425;-82
2021/07/21 01:57:25;;;;;;;29.15;15.45;;;;;;;18.59;100.00;98620.69;1670567;85;21154;-82
2021/07/21 01:59:55;;;;;;;24.92;14.58;;;;;;;18.61;100.00;98619.73;1645969;85;21635;-83
2021/07/21 02:02:23;;;;;;;23.75;15.43;;;;;;;18.62;100.00;98612.98;1686830;84;21009;-83
2021/07/21 02:04:54;;;;;;;25.40;14.60;;;;;;;18.64;100.00;98619.75;1682514;84;21604;-83
2021/07/21 02:07:24;;;;;;;20.85;15.55;;;;;;;18.67;100.00;98625.12;1670329;84;20929;-83
2021/07/21 02:09:52;;;;;;;28.70;15.43;;;;;;;18.67;100.00;98626.52;1669354;84;21539;-82
2021/07/21 02:12:21;;;;;;;26.37;15.00;;;;;;;18.67;100.00;98632.07;1666918;84;21437;-83
2021/07/21 02:14:48;;;;;;;32.78;17.02;;;;;;;18.68;100.00;98633.66;1680383;84;21106;-83
2021/07/21 02:17:17;;;;;;;22.82;14.60;;;;;;;18.67;100.00;98631.48;1676978;84;20978;-84
2021/07/21 02:19:46;;;;;;;24.02;15.00;;;;;;;18.68;100.00;98637.23;1671278;85;21033;-85
2021/07/21 02:22:26;;;;;;;26.77;14.83;;;;;;;18.68;100.00;98637.83;1670203;85;21411;-82
2021/07/21 02:24:55;;;;;;;24.12;16.27;;;;;;;18.67;100.00;98639.02;1667584;84;20974;-85
2021/07/21 02:27:26;;;;;;;26.30;16.52;;;;;;;18.66;100.00;98634.64;1672428;85;21511;-84
2021/07/21 02:29:53;;;;;;;25.37;16.52;;;;;;;18.67;100.00;98639.02;1684804;85;20917;-84
2021/07/21 02:32:32;;;;;;;28.57;16.87;;;;;;;18.69;100.00;98628.30;1678408;85;20913;-85
2021/07/21 02:34:58;;;;;;;24.75;16.05;;;;;;;18.73;100.00;98629.91;1689994;85;21142;-89
2021/07/21 02:37:26;;;;;;;28.40;16.90;;;;;;;18.79;100.00;98633.11;1677365;84;21005;-85
2021/07/21 02:39:54;;;;;;;25.15;16.32;;;;;;;18.83;100.00;98633.92;1671737;85;20950;-87
2021/07/21 02:42:22;;;;;;;27.48;16.12;;;;;;;18.86;100.00;98641.47;1682377;84;20929;-86
2021/07/21 02:44:51;;;;;;;27.48;16.60;;;;;;;18.92;100.00;98631.56;1689841;85;20937;-82
2021/07/21 02:47:19;;;;;;;27.60;16.87;;;;;;;18.98;100.00;98632.77;1687658;85;21536;-85
2021/07/21 02:49:51;;;;;;;28.80;17.42;;;;;;;19.04;100.00;98631.19;1677751;85;20950;-82
2021/07/21 02:52:57;;;;;;;30.10;15.60;;;;;;;19.08;100.00;98631.17;1687330;85;20914;-81
2021/07/21 02:55:32;;;;;;;23.52;16.80;;;;;;;19.10;100.00;98636.54;1680735;84;21175;-86
2021/07/21 02:58:25;;;;;;;30.17;17.12;;;;;;;19.07;100.00;98634.55;1650675;85;20953;-88
2021/07/21 03:00:56;;;;;;;30.62;17.35;;;;;;;19.10;100.00;98636.54;1677442;85;21150;-86
2021/07/21 03:03:24;;;;;;;24.32;16.52;;;;;;;19.16;100.00;98626.42;1672009;85;20982;-88
2021/07/21 03:05:57;;;;;;;25.05;15.30;;;;;;;19.17;100.00;98629.41;1687802;84;20945;-83
2021/07/21 03:08:29;;;;;;;26.07;17.62;;;;;;;19.17;100.00;98635.76;1671192;84;21637;-89
2021/07/21 03:11:01;;;;;;;27.80;17.17;;;;;;;19.16;100.00;98640.33;1670215;84;20894;-87
2021/07/21 03:13:32;;;;;;;28.92;17.73;;;;;;;19.17;100.00;98642.72;1685670;84;21598;-86
2021/07/21 03:16:01;;;;;;;25.45;16.65;;;;;;;19.20;100.00;98635.56;1692494;84;20969;-84
2021/07/21 03:18:35;;;;;;;26.52;17.62;;;;;;;19.26;100.00;98634.78;1685932;84;21456;-85
2021/07/21 03:21:02;;;;;;;29.30;18.15;;;;;;;19.29;100.00;98639.55;1667277;84;20962;-88
2021/07/21 03:23:31;;;;;;;25.80;19.37;;;;;;;19.29;100.00;98645.13;1666661;84;21025;-84
2021/07/21 03:26:01;;;;;;;29.12;19.02;;;;;;;19.31;100.00;98648.30;1661766;84;21179;-88
2021/07/21 03:28:30;;;;;;;31.40;17.70;;;;;;;19.35;100.00;98646.92;1673043;84;20957;-89
2021/07/21 03:31:01;;;;;;;27.67;17.30;;;;;;;19.37;100.00;98650.90;1650633;84;21486;-87
2021/07/21 03:33:29;;;;;;;30.40;19.30;;;;;;;19.37;100.00;98649.51;1683148;84;20997;-77
2021/07/21 03:36:03;;;;;;;45.85;20.08;;;;;;;19.35;100.00;98653.88;1686732;84;20958;-83
2021/07/21 03:38:32;;;;;;;26.37;20.12;;;;;;;19.34;100.00;98659.23;1662895;84;21167;-84
2021/07/21 03:41:00;;;;;;;30.12;19.23;;;;;;;19.33;100.00;98667.39;1682834;84;21085;-79
2021/07/21 03:43:32;;;;;;;29.05;19.40;;;;;;;19.36;100.00;98662.42;1665070;84;21191;-81
2021/07/21 03:46:00;;;;;;;30.37;19.62;;;;;;;19.35;100.00;98665.00;1642854;84;21228;-74
2021/07/21 03:48:29;;;;;;;28.98;20.65;;;;;;;19.39;100.00;98663.02;1686339;84;20941;-84
2021/07/21 03:51:00;;;;;;;30.97;20.37;;;;;;;19.38;100.00;98666.41;1668145;84;21593;-75
2021/07/21 03:53:29;;;;;;;32.93;20.17;;;;;;;19.40;100.00;98670.98;1696439;84;20933;-78
2021/07/21 03:55:57;;;;;;;27.73;18.95;;;;;;;19.43;100.00;98674.36;1632021;85;20907;-81
2021/07/21 03:58:26;;;;;;;32.35;20.15;;;;;;;19.44;100.00;98675.16;1667282;84;21032;-89
2021/07/21 04:00:56;;;;;;;30.12;19.23;;;;;;;19.41;100.00;98685.09;1684161;84;20886;-78
2021/07/21 04:03:24;;;;;;;27.27;19.23;;;;;;;19.40;100.00;98672.38;1683022;84;21235;-84
2021/07/21 04:05:58;;;;;;;28.85;18.12;;;;;;;19.39;100.00;98678.33;1678524;84;21549;-87
2021/07/21 04:08:26;;;;;;;27.22;19.05;;;;;;;19.41;100.00;98674.55;1694672;83;20993;-80
2021/07/21 04:10:53;;;;;;;27.35;19.02;;;;;;;19.43;100.00;98678.54;1682574;84;20979;-79
2021/07/21 04:13:20;;;;;;;28.95;18.48;;;;;;;19.46;100.00;98677.75;1643305;85;21096;-80
2021/07/21 04:16:00;;;;;;;30.92;18.02;;;;;;;19.53;100.00;98682.56;1689393;84;21630;-86
2021/07/21 04:18:29;;;;;;;31.68;18.70;;;;;;;19.57;100.00;98680.58;1685447;84;21483;-88
2021/07/21 04:20:59;;;;;;;30.55;18.67;;;;;;;19.62;100.00;98678.79;1678134;84;21002;-81
2021/07/21 04:23:26;;;;;;;23.92;17.12;;;;;;;19.68;100.00;98688.30;1666402;84;21088;-78
2021/07/21 04:25:54;;;;;;;25.30;18.67;;;;;;;19.69;100.00;98681.55;1657436;84;20989;-78
2021/07/21 04:28:21;;;;;;;27.50;17.95;;;;;;;19.74;100.00;98692.88;1678877;84;21794;-80
2021/07/21 04:30:57;;;;;;;28.00;16.75;;;;;;;19.74;100.00;98689.50;1680503;84;20973;-80
2021/07/21 04:33:23;;;;;;;23.85;16.73;;;;;;;19.76;100.00;98687.12;1642760;84;21005;-85
2021/07/21 04:35:51;;;;;;;24.32;17.25;;;;;;;19.76;100.00;98686.32;1663089;84;21172;-84
2021/07/21 04:38:18;;;;;;;27.17;16.52;;;;;;;19.74;100.00;98687.31;1661285;84;21513;-82
2021/07/21 04:41:04;;;;;;;30.40;16.87;;;;;;;19.77;100.00;98691.49;1679816;84;22007;-82
2021/07/21 04:43:44;;;;;;;21.82;15.78;;;;;;;19.79;100.00;98691.89;1652457;85;20958;-77
2021/07/21 04:46:13;;;;;;;25.77;16.05;;;;;;;19.84;100.00;98696.87;1672239;84;21508;-80
2021/07/21 04:48:42;;;;;;;22.82;15.85;;;;;;;19.87;100.00;98694.67;1681491;83;21084;-78
2021/07/21 04:51:10;;;;;;;26.87;15.68;;;;;;;19.91;100.00;98696.87;1658850;84;20921;-78
2021/07/21 04:53:37;;;;;;;22.00;15.32;;;;;;;19.99;100.00;98698.45;1653555;83;21158;-77
2021/07/21 04:56:05;;;;;;;20.92;14.47;;;;;;;20.06;100.00;98700.64;1675164;84;21461;-86
2021/07/21 04:58:33;;;;;;;22.15;16.15;;;;;;;20.10;100.00;98706.21;1672886;84;21022;-82
2021/07/21 05:01:01;;;;;;;27.02;16.70;;;;;;;20.13;100.00;98699.84;1675712;84;21520;-81
2021/07/21 05:03:28;;;;;;;23.27;14.55;;;;;;;20.10;100.00;98698.65;1641559;85;21116;-82
2021/07/21 05:05:56;;;;;;;22.07;15.85;;;;;;;20.13;100.00;98705.41;1645097;85;22147;-82
2021/07/21 05:08:24;;;;;;;21.65;15.03;;;;;;;20.13;100.00;98705.41;1651901;85;20950;-76
2021/07/21 05:10:55;;;;;;;28.90;16.00;;;;;;;20.12;100.00;98705.21;1638531;86;21064;-76
2021/07/21 05:13:23;;;;;;;24.52;16.35;;;;;;;20.07;100.00;98712.58;1632341;86;21761;-76
2021/07/21 05:15:49;;;;;;;25.10;15.28;;;;;;;20.00;100.00;98713.98;1656192;86;21084;-75
2021/07/21 05:18:19;;;;;;;23.42;15.75;;;;;;;19.97;100.00;98715.56;1653449;86;21642;-80
2021/07/21 05:20:48;;;;;;;24.52;15.65;;;;;;;19.97;100.00;98714.77;1654087;86;21630;-77
2021/07/21 05:23:16;;;;;;;21.57;15.43;;;;;;;19.92;100.00;98710.99;1638777;86;21041;-78
2021/07/21 05:25:45;;;;;;;23.70;15.50;;;;;;;19.88;100.00;98714.38;1649070;86;21022;-75
2021/07/21 05:28:31;;;;;;;23.10;14.07;;;;;;;19.88;100.00;98713.77;1657435;84;21098;-76
2021/07/21 05:30:59;;;;;;;19.62;13.85;;;;;;;19.92;100.00;98720.74;1664564;84;21207;-76
2021/07/21 05:33:26;;;;;;;20.12;15.40;;;;;;;19.93;100.00;98711.98;1668472;84;20952;-76
2021/07/21 05:35:52;;;;;;;22.90;14.93;;;;;;;19.95;100.00;98708.80;1674970;84;21023;-76
2021/07/21 05:38:24;;;;;;;25.60;15.13;;;;;;;19.99;100.00;98719.34;1654601;84;21070;-77
2021/07/21 05:40:52;;;;;;;21.17;13.98;;;;;;;20.02;100.00;98713.77;1671113;84;21074;-76
2021/07/21 05:43:22;;;;;;;17.67;12.73;;;;;;;20.06;100.00;98709.59;1696611;83;21494;-76
2021/07/21 05:45:50;;;;;;;20.68;13.88;;;;;;;20.13;100.00;98706.80;1677225;83;20965;-76
2021/07/21 05:48:18;;;;;;;19.70;14.00;;;;;;;20.22;100.00;98709.19;1650880;85;21053;-75
2021/07/21 05:50:55;;;;;;;24.40;14.58;;;;;;;20.34;100.00;98707.34;1650882;84;21668;-75
2021/07/21 05:53:24;;;;;;;19.70;13.38;;;;;;;20.46;100.00;98706.16;1680864;83;21219;-76
2021/07/21 05:55:51;;;;;;;19.98;13.25;;;;;;;20.54;100.00;98709.12;1658216;84;22027;-76
2021/07/21 05:58:19;;;;;;;20.68;12.65;;;;;;;20.59;100.00;98711.50;1657090;83;21199;-76
2021/07/21 06:00:46;;;;;;;22.85;12.25;;;;;;;20.62;99.79;98710.70;1669460;84;21140;-78
2021/07/21 06:03:18;;;;;;;17.05;12.10;;;;;;;20.69;99.45;98709.28;1666834;84;21537;-76
2021/07/21 06:06:00;;;;;;;20.70;11.60;;;;;;;20.81;98.96;98715.78;1635648;86;21106;-76
2021/07/21 06:08:46;;;;;;;23.32;12.63;;;;;;;20.93;97.63;98713.95;1668925;84;21159;-78
2021/07/21 06:11:19;;;;;;;19.82;12.53;;;;;;;21.03;97.12;98720.68;1680909;84;21083;-77
2021/07/21 06:13:47;;;;;;;19.25;12.50;;;;;;;21.09;95.83;98727.44;1679925;84;21141;-80
2021/07/21 06:16:15;;;;;;;20.10;12.30;;;;;;;21.01;93.79;98723.88;1673254;84;21113;-78
2021/07/21 06:18:44;;;;;;;20.15;12.03;;;;;;;20.92;94.74;98731.88;1660429;84;21045;-80
2021/07/21 06:21:12;;;;;;;17.12;11.18;;;;;;;20.84;94.81;98727.53;1637633;86;21185;-76
2021/07/21 06:23:40;;;;;;;18.67;13.00;;;;;;;20.79;95.11;98729.37;1639867;86;21101;-77
2021/07/21 06:26:07;;;;;;;22.13;13.00;;;;;;;20.78;95.55;98722.80;1656239;86;21077;-76
2021/07/21 06:28:40;;;;;;;15.53;11.33;;;;;;;20.83;95.69;98725.14;1637522;86;21073;-76
2021/07/21 06:31:07;;;;;;;20.20;11.38;;;;;;;20.80;95.44;98728.77;1651157;86;21592;-76
2021/07/21 06:33:35;;;;;;;18.82;11.85;;;;;;;20.77;95.33;98724.80;1642549;86;21149;-77
2021/07/21 06:36:04;;;;;;;17.62;11.22;;;;;;;20.75;95.71;98725.20;1643157;86;21098;-77
2021/07/21 06:38:32;;;;;;;18.02;12.18;;;;;;;20.73;96.14;98723.41;1651752;86;21041;-76
2021/07/21 06:41:06;;;;;;;21.30;12.23;;;;;;;20.70;96.31;98719.23;1673886;83;21065;-77
2021/07/21 06:43:34;;;;;;;18.75;13.30;;;;;;;20.67;97.11;98724.23;1684688;83;21427;-78
2021/07/21 06:46:03;;;;;;;20.72;12.35;;;;;;;20.68;96.57;98724.42;1681759;83;21144;-77
2021/07/21 06:48:29;;;;;;;19.12;11.85;;;;;;;20.65;97.00;98723.23;1660479;83;21493;-76
2021/07/21 06:50:56;;;;;;;15.98;11.18;;;;;;;20.67;96.61;98720.05;1679792;83;21709;-78
2021/07/21 06:53:29;;;;;;;17.48;11.12;;;;;;;20.70;96.59;98722.03;1662752;84;20979;-77
2021/07/21 06:56:07;;;;;;;;;;;;;;;20.75;96.87;98719.63;1649078;84;21195;-76
2021/07/21 06:58:35;;;;;;;17.25;10.63;;;;;;;20.87;97.14;98715.56;1652576;84;21536;-76
2021/07/21 07:01:04;;;;;;;20.17;11.33;;;;;;;21.00;96.70;98720.89;1670092;84;20992;-77
2021/07/21 07:03:36;;;;;;;18.42;11.18;;;;;;;21.19;95.83;98714.63;1676210;83;21068;-76
2021/07/21 07:06:21;;;;;;;16.85;10.32;;;;;;;21.37;93.67;98715.36;1683516;83;21074;-77
2021/07/21 07:09:06;;;;;;;24.32;10.32;;;;;;;21.56;93.52;98710.63;1663939;84;21445;-76
2021/07/21 07:11:43;;;;;;;17.60;10.03;;;;;;;21.80;92.37;98722.83;1680179;83;21515;-76
2021/07/21 07:14:09;;;;;;;15.98;10.40;;;;;;;21.92;89.74;98712.55;1682386;83;21089;-81
2021/07/21 07:16:37;;;;;;;15.03;10.08;;;;;;;21.98;88.48;98713.67;1672449;83;22310;-82
2021/07/21 07:19:04;;;;;;;15.88;9.75;;;;;;;21.99;87.21;98720.05;1666507;83;21133;-79
2021/07/21 07:21:30;;;;;;;14.80;9.65;;;;;;;22.03;86.91;98720.84;1658086;84;21072;-81
2021/07/21 07:23:57;;;;;;;17.80;10.65;;;;;;;22.07;85.03;98716.02;1667845;84;21587;-80
2021/07/21 07:26:24;;;;;;;15.05;9.28;;;;;;;22.06;84.65;98720.02;1654008;85;21149;-81
2021/07/21 07:28:55;;;;;;;18.15;9.45;;;;;;;22.02;84.13;98722.84;1636735;86;21044;-80
2021/07/21 07:31:24;;;;;;;18.10;10.03;;;;;;;21.99;84.48;98730.63;1639715;86;21067;-80
2021/07/21 07:33:50;;;;;;;17.40;10.30;;;;;;;21.98;84.76;98725.45;1685984;83;21631;-79
2021/07/21 07:36:17;;;;;;;14.78;9.63;;;;;;;21.99;85.00;98731.23;1688925;83;21627;-81
2021/07/21 07:38:44;;;;;;;14.63;9.30;;;;;;;22.00;84.05;98730.02;1672211;84;20957;-81
2021/07/21 07:41:10;;;;;;;14.50;8.83;;;;;;;21.95;83.26;98732.66;1678607;83;21121;-78
2021/07/21 07:43:38;;;;;;;14.00;9.00;;;;;;;21.91;82.71;98726.33;1679491;83;21084;-80
2021/07/21 07:46:06;;;;;;;13.18;8.93;;;;;;;21.88;83.06;98734.74;1691750;83;21017;-78
2021/07/21 07:48:33;;;;;;;16.70;10.32;;;;;;;21.84;82.98;98734.77;1680401;83;21526;-77
2021/07/21 07:51:00;;;;;;;18.87;10.05;;;;;;;21.82;83.68;98732.98;1649684;85;22228;-78
2021/07/21 07:53:26;;;;;;;18.25;10.18;;;;;;;21.83;83.17;98742.95;1650581;85;21072;-81
2021/07/21 07:55:53;;;;;;;16.20;10.05;;;;;;;21.79;82.23;98736.60;1656475;85;21026;-79
2021/07/21 07:58:20;;;;;;;14.98;10.30;;;;;;;21.71;83.10;98740.65;1659853;85;21145;-79
2021/07/21 08:00:47;;;;;;;16.07;9.70;;;;;;;21.68;83.28;98736.67;1648894;85;22086;-80
2021/07/21 08:03:13;;;;;;;22.55;10.20;;;;;;;21.67;83.83;98740.67;1660295;84;21513;-77
2021/07/21 08:05:40;;;;;;;17.50;9.85;;;;;;;21.64;84.41;98745.67;1658966;84;21170;-76
2021/07/21 08:08:06;;;;;;;15.10;10.05;;;;;;;21.58;84.82;98746.52;1660386;85;20998;-76
2021/07/21 08:10:32;;;;;;;17.73;9.85;;;;;;;21.53;85.58;98744.95;1661398;85;21061;-76
2021/07/21 08:13:00;;;;;;;16.35;10.13;;;;;;;21.52;85.69;98751.73;1635798;86;20968;-76
2021/07/21 08:15:27;;;;;;;17.57;9.90;;;;;;;21.52;85.95;98750.34;1658775;85;21441;-75
2021/07/21 08:17:53;;;;;;;20.48;10.48;;;;;;;21.53;85.03;98746.95;1672134;85;20875;-77
2021/07/21 08:20:20;;;;;;;16.95;9.48;;;;;;;21.52;85.54;98748.95;1632412;86;21038;-78
2021/07/21 08:22:46;;;;;;;14.03;9.58;;;;;;;21.53;85.60;98746.34;1653265;85;21197;-77
2021/07/21 08:25:16;;;;;;;17.32;9.85;;;;;;;21.57;85.71;98746.33;1667460;85;21756;-76
2021/07/21 08:27:44;;;;;;;14.07;9.13;;;;;;;21.59;85.18;98757.28;1671929;85;20954;-78
2021/07/21 08:30:12;;;;;;;15.78;8.80;;;;;;;21.64;85.25;98750.47;1676459;85;20905;-73
2021/07/21 08:32:48;;;;;;;16.15;9.98;;;;;;;21.70;84.92;98746.84;1648582;85;21582;-75
2021/07/21 08:35:16;;;;;;;12.05;8.00;;;;;;;21.78;84.36;98746.79;1656488;85;21020;-76
2021/07/21 08:37:42;;;;;;;14.03;8.43;;;;;;;21.84;83.98;98742.36;1685221;84;21098;-84
2021/07/21 08:40:10;;;;;;;15.70;10.05;;;;;;;21.92;83.45;98745.29;1679362;84;20946;-77
2021/07/21 08:42:37;;;;;;;18.60;9.95;;;;;;;21.96;82.40;98745.42;1683285;84;21067;-77
2021/07/21 08:45:05;;;;;;;16.73;10.03;;;;;;;22.00;82.38;98753.78;1668555;84;21509;-79
2021/07/21 08:47:31;;;;;;;14.78;9.35;;;;;;;22.02;81.60;98757.78;1674692;84;20941;-76
2021/07/21 08:49:58;;;;;;;18.57;9.30;;;;;;;22.02;81.63;98755.59;1681584;84;21539;-81
2021/07/21 08:52:24;;;;;;;18.10;10.10;;;;;;;22.04;81.64;98746.19;1685871;84;21552;-77
2021/07/21 08:54:56;;;;;;;17.73;9.55;;;;;;;22.11;81.49;98751.72;1655014;86;21527;-78
2021/07/21 08:57:19;;;;;;;19.90;9.63;;;;;;;22.19;80.97;98749.06;1644005;86;21000;-78
2021/07/21 08:59:46;;;;;;;19.87;9.83;;;;;;;22.25;79.36;98747.41;1616481;87;21101;-77
2021/07/21 09:02:14;;;;;;;16.70;9.38;;;;;;;22.25;79.76;98746.02;1654852;85;22084;-74
2021/07/21 09:04:41;;;;;;;19.35;9.10;;;;;;;22.26;80.24;98747.59;1676010;84;21093;-73
2021/07/21 09:07:08;;;;;;;17.20;8.75;;;;;;;22.32;80.07;98750.14;1677031;84;21013;-77
2021/07/21 09:09:35;;;;;;;21.57;10.08;;;;;;;22.36;79.73;98750.91;1680067;84;21026;-78
2021/07/21 09:12:02;;;;;;;12.82;8.10;;;;;;;22.39;79.23;98752.08;1681465;84;20878;-77
2021/07/21 09:14:28;;;;;;;13.20;8.55;;;;;;;22.37;78.17;98758.09;1683241;84;21529;-76
2021/07/21 09:17:09;;;;;;;16.12;9.25;;;;;;;22.31;77.84;98761.14;1683889;84;20989;-78
2021/07/21 09:19:43;;;;;;;14.73;9.88;;;;;;;22.26;78.77;98761.58;1657615;84;21629;-77
2021/07/21 09:22:35;;;;;;;16.12;8.45;;;;;;;22.26;77.99;98756.59;1656796;85;21050;-73
2021/07/21 09:25:20;;;;;;;18.07;9.15;;;;;;;22.23;78.35;98766.59;1635703;86;21096;-77
2021/07/21 09:27:49;;;;;;;17.07;8.68;;;;;;;22.22;77.82;98769.20;1651336;85;21701;-77
2021/07/21 09:30:19;;;;;;;18.10;9.35;;;;;;;22.22;78.10;98772.00;1653349;86;21097;-76
2021/07/21 09:33:03;;;;;;;24.55;9.48;;;;;;;22.24;78.60;98769.58;1654789;85;21530;-76
2021/07/21 09:35:44;;;;;;;15.75;8.25;;;;;;;22.28;79.14;98762.56;1651619;86;21685;-72
2021/07/21 09:38:17;;;;;;;12.75;8.20;;;;;;;22.33;79.28;98762.12;1654393;85;21039;-74
2021/07/21 09:40:46;;;;;;;22.15;8.78;;;;;;;22.38;79.18;98766.66;1667215;84;23137;-77
2021/07/21 09:43:26;;;;;;;14.13;8.20;;;;;;;22.46;79.11;98770.19;1670027;84;20961;-74
2021/07/21 09:45:53;;;;;;;15.60;8.03;;;;;;;22.53;79.01;98768.69;1680024;84;20882;-77
2021/07/21 09:48:43;;;;;;;13.83;7.62;;;;;;;22.62;78.78;98767.61;1679270;84;21591;-74
2021/07/21 09:51:11;;;;;;;26.75;9.75;;;;;;;22.70;77.92;98764.13;1685414;84;21013;-74
2021/07/21 09:53:48;;;;;;;15.28;8.23;;;;;;;22.76;76.94;98761.07;1654891;85;21161;-76
2021/07/21 09:56:14;;;;;;;18.85;8.38;;;;;;;22.84;75.57;98755.61;1698533;84;20962;-76
2021/07/21 09:58:41;;;;;;;16.42;8.00;;;;;;;22.95;75.85;98759.69;1675549;85;21584;-82
2021/07/21 10:01:07;;;;;;;19.17;8.28;;;;;;;23.03;76.06;98756.39;1675342;85;21136;-83
2021/07/21 10:03:39;;;;;;;15.03;8.00;;;;;;;23.14;74.80;98759.64;1674459;85;21551;-81
2021/07/21 10:06:12;;;;;;;17.10;8.63;;;;;;;23.13;73.97;98760.24;1681364;84;21510;-84
2021/07/21 10:08:52;;;;;;;35.05;10.80;;;;;;;23.11;74.67;98760.50;1678925;83;21518;-76
2021/07/21 10:11:30;;;;;;;111.45;23.15;;;;;;;23.08;73.30;98759.94;1674969;84;21575;-73
2021/07/21 10:14:07;;;;;;;49.58;14.07;;;;;;;23.00;73.65;98761.42;1679147;84;21082;-74
2021/07/21 10:16:44;;;;;;;31.85;9.80;;;;;;;22.99;74.32;98756.25;1671178;84;21013;-75
2021/07/21 10:19:24;;;;;;;15.90;7.03;;;;;;;22.97;74.10;98758.06;1681496;84;21175;-75
2021/07/21 10:21:57;;;;;;;9.58;6.60;;;;;;;22.96;73.46;98752.28;1665653;84;21132;-74
2021/07/21 10:24:27;;;;;;;13.78;6.75;;;;;;;23.00;73.14;98754.43;1686633;84;21550;-73
2021/07/21 10:26:54;;;;;;;13.25;7.17;;;;;;;23.03;72.25;98745.80;1668368;84;21072;-72
2021/07/21 10:29:22;;;;;;;11.40;6.85;;;;;;;23.01;71.16;98747.62;1669728;84;21022;-72
2021/07/21 10:31:50;;;;;;;11.68;7.22;;;;;;;23.02;71.00;98747.02;1665951;84;21156;-73
2021/07/21 10:34:20;;;;;;;9.98;7.62;;;;;;;23.05;70.66;98747.58;1669107;84;21112;-75
2021/07/21 10:36:47;;;;;;;15.08;7.58;;;;;;;23.07;70.30;98747.95;1668371;85;21564;-74
2021/07/21 10:39:18;;;;;;;12.98;6.97;;;;;;;23.10;70.92;98745.72;1662286;84;21548;-70
2021/07/21 10:41:46;;;;;;;11.38;6.35;;;;;;;23.16;70.78;98746.02;1666090;84;20903;-72
2021/07/21 10:44:15;;;;;;;10.78;6.62;;;;;;;23.23;71.32;98748.72;1672643;84;21147;-73
2021/07/21 10:46:51;;;;;;;11.12;5.55;;;;;;;23.30;71.76;98750.83;1672816;84;21017;-72
2021/07/21 11:00:32;;;;;;;36.58;9.20;;;;;;;23.32;71.92;98761.61;1677593;85;21534;-72
2021/07/21 11:03:28;;;;;;;9.78;6.80;;;;;;;23.39;72.15;98758.11;1670603;84;21128;-73
2021/07/21 11:06:07;;;;;;;13.95;7.67;;;;;;;23.45;71.17;98759.83;1657720;84;21061;-73
2021/07/21 11:08:48;;;;;;;11.00;6.33;;;;;;;23.52;69.74;98763.94;1661065;85;20954;-74
2021/07/21 11:11:20;;;;;;;11.22;6.50;;;;;;;23.60;70.55;98763.27;1682796;84;21191;-74
2021/07/21 11:13:59;;;;;;;11.40;7.42;;;;;;;23.70;70.90;98765.87;1688769;84;20953;-74
2021/07/21 11:16:48;;;;;;;20.75;7.17;;;;;;;23.81;69.18;98755.12;1682961;84;21001;-75
2021/07/21 11:19:46;;;;;;;10.75;6.60;;;;;;;23.84;71.08;98759.27;1623182;84;20977;-74
2021/07/21 11:22:27;;;;;;;15.70;6.90;;;;;;;23.92;68.93;98758.55;1680975;84;46587;-73
2021/07/21 11:25:18;;;;;;;16.65;7.83;;;;;;;24.01;68.95;98761.01;1673063;84;21071;-74
2021/07/21 11:27:55;;;;;;;12.65;7.00;;;;;;;24.10;68.69;98763.88;1673249;84;21011;-72
2021/07/21 11:30:58;;;;;;;19.55;7.28;;;;;;;24.19;68.65;98757.91;1680148;84;21049;-74
2021/07/21 11:34:01;;;;;;;10.40;6.40;;;;;;;24.24;68.53;98767.25;1662229;84;21085;-75
2021/07/21 11:36:46;;;;;;;12.10;6.78;;;;;;;24.17;67.34;98763.16;1667938;84;21058;-74
2021/07/21 11:39:48;;;;;;;6.85;5.10;;;;;;;24.03;68.66;98770.39;1675541;84;21533;-74
2021/07/21 11:42:40;;;;;;;9.03;4.92;;;;;;;23.84;67.55;98778.09;1692232;84;21511;-73
2021/07/21 11:45:18;;;;;;;11.53;4.90;;;;;;;23.55;66.90;98777.73;1691949;84;21024;-74
2021/07/21 11:47:56;;;;;;;6.58;4.25;;;;;;;23.21;69.10;98771.55;1665030;84;21009;-74
2021/07/21 11:50:31;;;;;;;5.42;4.58;;;;;;;22.95;70.66;98775.08;1680732;84;21046;-74